createdAt,value
2018-11-04T00:00:24.098Z,63.30
2018-11-04T00:02:53.145Z,63.40
2018-11-04T00:05:21.973Z,63.60
2018-11-04T00:07:51.437Z,63.70
2018-11-04T00:10:20.303Z,63.80
2018-11-04T00:12:49.142Z,64.00
2018-11-04T00:15:17.979Z,64.00
2018-11-04T00:17:47.055Z,64.10
2018-11-04T00:20:16.077Z,64.00
2018-11-04T00:22:44.999Z,64.20
2018-11-04T00:25:14.555Z,64.20
2018-11-04T00:27:43.381Z,64.20
2018-11-04T00:30:13.875Z,64.00
2018-11-04T00:32:43.177Z,64.20
2018-11-04T00:35:12.257Z,64.20
2018-11-04T00:37:41.124Z,64.30
2018-11-04T00:40:10.387Z,64.30
2018-11-04T00:42:39.272Z,64.40
2018-11-04T00:45:15.761Z,64.40
2018-11-04T00:47:44.549Z,64.40
2018-11-04T00:50:15.902Z,64.40
2018-11-04T00:52:44.922Z,64.50
2018-11-04T00:55:14.076Z,64.50
2018-11-04T00:57:43.446Z,64.50
2018-11-04T01:00:15.211Z,64.40
2018-11-04T01:02:45.021Z,64.50
2018-11-04T01:05:13.846Z,64.50
2018-11-04T01:07:42.737Z,64.50
2018-11-04T01:10:12.294Z,64.50
2018-11-04T01:12:41.803Z,64.30
2018-11-04T01:15:11.933Z,64.50
2018-11-04T01:17:41.846Z,63.90
2018-11-04T01:20:13.249Z,64.60
2018-11-04T01:22:42.285Z,64.60
2018-11-04T01:25:11.130Z,64.50
2018-11-04T01:27:40.041Z,64.40
2018-11-04T01:30:11.888Z,64.50
2018-11-04T01:32:40.660Z,64.70
2018-11-04T01:35:09.498Z,64.60
2018-11-04T01:37:38.753Z,64.70
2018-11-04T01:40:09.721Z,64.90
2018-11-04T01:42:38.971Z,64.90
2018-11-04T01:45:10.422Z,64.80
2018-11-04T01:47:39.346Z,65.00
2018-11-04T01:50:11.538Z,64.90
2018-11-04T01:52:40.374Z,64.90
2018-11-04T01:55:10.012Z,64.90
2018-11-04T01:57:39.170Z,65.70
2018-11-04T02:00:12.458Z,64.90
2018-11-04T02:02:42.618Z,65.10
2018-11-04T02:05:12.076Z,65.10
2018-11-04T02:07:41.097Z,65.10
2018-11-04T02:10:12.144Z,64.90
2018-11-04T02:12:40.945Z,65.10
2018-11-04T02:15:11.547Z,65.10
2018-11-04T02:17:40.839Z,65.10
2018-11-04T02:20:11.317Z,65.10
2018-11-04T02:22:40.458Z,65.10
2018-11-04T02:25:10.478Z,65.10
2018-11-04T02:27:39.479Z,65.10
2018-11-04T02:30:12.053Z,65.10
2018-11-04T02:32:41.231Z,65.10
2018-11-04T02:35:10.063Z,65.10
2018-11-04T02:37:39.634Z,65.10
2018-11-04T02:40:08.511Z,65.10
2018-11-04T02:42:37.614Z,65.00
2018-11-04T02:45:07.974Z,65.00
2018-11-04T02:47:37.249Z,64.80
2018-11-04T02:50:09.271Z,65.00
2018-11-04T02:52:38.098Z,65.00
2018-11-04T02:55:07.509Z,64.90
2018-11-04T02:57:36.798Z,65.00
2018-11-04T03:00:08.998Z,65.00
2018-11-04T03:02:37.829Z,64.90
2018-11-04T03:05:09.860Z,65.00
2018-11-04T03:07:45.043Z,65.00
2018-11-04T03:10:14.676Z,65.10
2018-11-04T03:12:43.512Z,65.10
2018-11-04T03:15:12.659Z,65.10
2018-11-04T03:17:41.494Z,65.20
2018-11-04T03:20:10.311Z,65.20
2018-11-04T03:22:39.163Z,65.30
2018-11-04T03:25:08.903Z,65.30
2018-11-04T03:27:37.697Z,65.20
2018-11-04T03:30:08.295Z,65.30
2018-11-04T03:32:37.114Z,65.30
2018-11-04T03:35:06.045Z,65.30
2018-11-04T03:37:35.448Z,65.30
2018-11-04T03:45:03.415Z,65.40
2018-11-04T03:47:32.258Z,65.30
2018-11-04T03:50:01.050Z,65.60
2018-11-04T03:52:29.877Z,65.70
2018-11-04T03:54:58.713Z,65.80
2018-11-04T03:57:27.549Z,65.70
2018-11-04T03:59:56.614Z,65.90
2018-11-04T04:02:25.458Z,65.90
2018-11-04T04:04:54.278Z,65.90
2018-11-04T04:07:23.596Z,66.70
2018-11-04T04:09:52.490Z,65.90
2018-11-04T04:12:21.311Z,65.90
2018-11-04T04:14:50.168Z,65.90
2018-11-04T04:17:19.009Z,65.70
2018-11-04T04:19:47.828Z,65.80
2018-11-04T04:22:17.959Z,65.90
2018-11-04T04:24:46.773Z,65.70
2018-11-04T04:27:15.593Z,65.80
2018-11-04T04:29:44.475Z,65.90
2018-11-04T04:32:13.344Z,65.90
2018-11-04T04:34:42.160Z,65.90
2018-11-04T04:37:11.021Z,65.90
2018-11-04T04:39:39.943Z,65.90
2018-11-04T04:42:08.763Z,66.00
2018-11-04T04:44:37.884Z,66.00
2018-11-04T04:47:06.805Z,65.30
2018-11-04T04:49:35.656Z,66.00
2018-11-04T04:52:04.535Z,66.00
2018-11-04T04:54:33.370Z,66.10
2018-11-04T04:57:02.235Z,66.20
2018-11-04T04:59:31.098Z,66.20
2018-11-04T05:01:59.922Z,66.20
2018-11-04T05:04:28.753Z,66.20
2018-11-04T05:06:58.186Z,66.30
2018-11-04T05:09:27.403Z,66.30
2018-11-04T05:11:56.213Z,67.10
2018-11-04T05:14:25.108Z,66.30
2018-11-04T05:17:00.559Z,66.20
2018-11-04T05:19:29.427Z,66.30
2018-11-04T05:21:58.251Z,66.30
2018-11-04T05:24:27.076Z,66.30
2018-11-04T05:26:56.391Z,66.20
2018-11-04T05:29:25.242Z,66.20
2018-11-04T05:31:54.068Z,66.30
2018-11-04T05:34:22.968Z,66.30
2018-11-04T05:36:51.796Z,66.30
2018-11-04T05:39:20.590Z,66.40
2018-11-04T05:41:49.465Z,67.10
2018-11-04T05:44:18.316Z,66.40
2018-11-04T05:46:47.171Z,66.50
2018-11-04T05:49:16.295Z,66.50
2018-11-04T05:51:45.140Z,66.40
2018-11-04T05:54:14.202Z,66.40
2018-11-04T05:56:43.067Z,66.50
2018-11-04T05:59:11.879Z,66.60
2018-11-04T06:01:40.719Z,66.70
2018-11-04T06:04:09.549Z,66.70
2018-11-04T06:06:38.361Z,66.60
2018-11-04T06:09:08.882Z,66.60
2018-11-04T06:11:38.491Z,66.60
2018-11-04T06:14:07.615Z,66.50
2018-11-04T06:16:36.440Z,66.60
2018-11-04T06:19:05.697Z,66.60
2018-11-04T06:21:34.545Z,66.60
2018-11-04T06:24:03.359Z,66.60
2018-11-04T06:26:32.248Z,66.70
2018-11-04T06:29:01.068Z,66.70
2018-11-04T06:31:29.882Z,66.70
2018-11-04T06:33:59.174Z,66.80
2018-11-04T06:36:28.008Z,66.80
2018-11-04T06:38:56.865Z,66.80
2018-11-04T06:41:25.709Z,66.80
2018-11-04T06:43:54.616Z,66.90
2018-11-04T06:46:23.946Z,66.90
2018-11-04T06:48:52.815Z,66.90
2018-11-04T06:51:21.663Z,66.90
2018-11-04T06:53:50.499Z,66.90
2018-11-04T06:56:20.039Z,66.80
2018-11-04T06:58:48.932Z,66.90
2018-11-04T07:01:17.751Z,67.10
2018-11-04T07:04:03.817Z,67.20
2018-11-04T07:06:32.663Z,67.20
2018-11-04T07:09:01.552Z,67.10
2018-11-04T07:11:30.735Z,67.20
2018-11-04T07:14:00.055Z,67.20
2018-11-04T07:16:28.889Z,67.40
2018-11-04T07:18:57.803Z,67.40
2018-11-04T07:21:26.626Z,68.10
2018-11-04T07:23:55.478Z,67.40
2018-11-04T07:26:24.396Z,67.50
2018-11-04T07:28:53.251Z,67.40
2018-11-04T07:31:22.123Z,67.50
2018-11-04T07:33:51.075Z,67.60
2018-11-04T07:36:19.927Z,67.60
2018-11-04T07:38:48.755Z,67.60
2018-11-04T07:41:17.878Z,67.70
2018-11-04T07:43:46.725Z,67.60
2018-11-04T07:46:15.598Z,67.60
2018-11-04T07:48:44.414Z,67.70
2018-11-04T07:51:13.247Z,67.80
2018-11-04T07:53:42.144Z,67.80
2018-11-04T07:56:11.116Z,67.70
2018-11-04T07:58:39.982Z,67.80
2018-11-04T08:01:08.800Z,67.80
2018-11-04T08:03:37.683Z,67.80
2018-11-04T08:06:06.533Z,67.80
2018-11-04T08:08:36.375Z,67.70
2018-11-04T08:11:05.319Z,67.80
2018-11-04T08:13:34.208Z,67.80
2018-11-04T08:16:03.416Z,67.80
2018-11-04T08:18:32.560Z,67.80
2018-11-04T08:21:01.409Z,67.80
2018-11-04T08:23:30.235Z,67.90
2018-11-04T08:26:00.070Z,68.00
2018-11-04T08:28:28.895Z,68.00
2018-11-04T08:30:57.724Z,68.00
2018-11-04T08:33:26.535Z,68.00
2018-11-04T08:35:55.380Z,68.10
2018-11-04T08:38:24.267Z,68.10
2018-11-04T08:40:53.247Z,68.10
2018-11-04T08:43:22.082Z,68.20
2018-11-04T08:45:51.038Z,68.20
2018-11-04T08:48:19.815Z,68.20
2018-11-04T08:50:48.636Z,68.10
2018-11-04T08:53:17.506Z,68.10
2018-11-04T08:55:46.348Z,68.10
2018-11-04T08:58:15.151Z,68.10
2018-11-04T09:00:44.051Z,68.10
2018-11-04T09:03:13.171Z,68.00
2018-11-04T09:05:42.035Z,68.10
2018-11-04T09:08:10.887Z,68.00
2018-11-04T09:10:39.780Z,67.90
2018-11-04T09:13:08.668Z,67.80
2018-11-04T09:15:37.475Z,67.80
2018-11-04T09:18:06.747Z,67.70
2018-11-04T09:20:35.596Z,67.60
2018-11-04T09:23:04.479Z,67.50
2018-11-04T09:25:33.678Z,67.40
2018-11-04T09:28:02.481Z,67.30
2018-11-04T09:30:31.315Z,67.20
2018-11-04T09:33:00.150Z,67.10
2018-11-04T09:35:29.127Z,67.10
2018-11-04T09:37:57.800Z,67.10
2018-11-04T09:40:26.650Z,67.00
2018-11-04T09:42:55.487Z,66.90
2018-11-04T09:45:24.330Z,66.80
2018-11-04T09:47:53.686Z,66.80
2018-11-04T09:50:22.541Z,66.70
2018-11-04T09:52:52.368Z,66.70
2018-11-04T09:55:21.231Z,66.60
2018-11-04T09:57:50.059Z,66.60
2018-11-04T10:00:18.962Z,66.60
2018-11-04T10:02:47.841Z,66.50
2018-11-04T10:05:16.731Z,66.50
2018-11-04T10:07:45.585Z,66.50
2018-11-04T10:10:15.452Z,66.50
2018-11-04T10:12:44.855Z,66.50
2018-11-04T10:15:13.671Z,67.10
2018-11-04T10:17:42.738Z,66.40
2018-11-04T10:20:13.003Z,66.40
2018-11-04T10:22:42.054Z,66.30
2018-11-04T10:25:12.072Z,66.20
2018-11-04T10:27:41.580Z,66.30
2018-11-04T10:30:13.686Z,66.20
2018-11-04T10:32:42.462Z,66.30
2018-11-04T10:35:11.527Z,66.20
2018-11-04T10:37:41.150Z,66.30
2018-11-04T10:40:11.078Z,66.90
2018-11-04T10:42:39.956Z,66.20
2018-11-04T10:45:10.339Z,66.20
2018-11-04T10:47:39.269Z,66.20
2018-11-04T10:50:10.860Z,66.10
2018-11-04T10:52:40.008Z,66.80
2018-11-04T10:55:09.923Z,66.00
2018-11-04T10:57:38.747Z,66.10
2018-11-04T11:00:15.672Z,66.00
2018-11-04T11:02:45.108Z,66.00
2018-11-04T11:05:14.040Z,65.90
2018-11-04T11:07:43.178Z,65.90
2018-11-04T11:10:12.411Z,65.90
2018-11-04T11:12:41.242Z,65.80
2018-11-04T11:15:11.116Z,65.70
2018-11-04T11:17:40.388Z,65.80
2018-11-04T11:20:10.369Z,65.80
2018-11-04T11:22:39.915Z,65.80
2018-11-04T11:25:09.151Z,65.80
2018-11-04T11:27:37.997Z,65.80
2018-11-04T11:30:09.359Z,65.80
2018-11-04T11:32:38.140Z,65.90
2018-11-04T11:35:22.915Z,65.80
2018-11-04T11:37:51.827Z,65.90
2018-11-04T11:40:20.611Z,65.90
2018-11-04T11:42:49.452Z,65.80
2018-11-04T11:45:18.307Z,65.80
2018-11-04T11:47:47.190Z,65.80
2018-11-04T11:50:16.461Z,65.70
2018-11-04T11:52:45.392Z,65.80
2018-11-04T11:55:14.138Z,65.90
2018-11-04T11:57:43.332Z,66.00
2018-11-04T12:00:12.439Z,66.00
2018-11-04T12:02:41.606Z,65.90
2018-11-04T12:05:10.865Z,65.90
2018-11-04T12:07:39.786Z,65.70
2018-11-04T12:10:12.175Z,65.70
2018-11-04T12:12:41.026Z,65.70
2018-11-04T12:15:11.043Z,65.50
2018-11-04T12:17:39.973Z,65.50
2018-11-04T12:20:10.337Z,65.50
2018-11-04T12:22:39.180Z,65.40
2018-11-04T12:25:10.483Z,65.40
2018-11-04T12:27:39.427Z,65.40
2018-11-04T12:30:11.804Z,65.40
2018-11-04T12:32:40.806Z,65.30
2018-11-04T12:35:11.099Z,65.20
2018-11-04T12:37:40.041Z,64.90
2018-11-04T12:40:10.769Z,65.30
2018-11-04T12:42:39.630Z,65.40
2018-11-04T12:45:10.450Z,65.30
2018-11-04T12:47:39.315Z,65.30
2018-11-04T12:50:09.962Z,65.20
2018-11-04T12:52:39.251Z,65.40
2018-11-04T12:55:08.938Z,65.30
2018-11-04T12:57:37.791Z,65.30
2018-11-04T13:00:11.785Z,65.30
2018-11-04T13:02:40.711Z,65.20
2018-11-04T13:05:10.440Z,65.10
2018-11-04T13:07:39.314Z,65.70
2018-11-04T13:10:11.011Z,65.30
2018-11-04T13:12:39.883Z,65.40
2018-11-04T13:15:10.503Z,65.40
2018-11-04T13:17:39.340Z,65.40
2018-11-04T13:20:09.291Z,65.50
2018-11-04T13:22:38.298Z,65.50
2018-11-04T13:25:10.308Z,65.60
2018-11-04T13:27:39.172Z,65.70
2018-11-04T13:30:11.108Z,65.60
2018-11-04T13:32:40.427Z,65.70
2018-11-04T13:35:09.275Z,65.70
2018-11-04T13:37:38.110Z,65.90
2018-11-04T13:40:09.599Z,65.90
2018-11-04T13:42:38.476Z,65.90
2018-11-04T13:50:08.908Z,66.10
2018-11-04T13:52:37.803Z,66.10
2018-11-04T13:55:07.984Z,66.30
2018-11-04T13:57:37.112Z,66.40
2018-11-04T14:00:12.285Z,66.30
2018-11-04T14:02:41.467Z,66.40
2018-11-04T14:05:10.834Z,66.40
2018-11-04T14:07:40.468Z,66.40
2018-11-04T14:10:10.939Z,66.40
2018-11-04T14:12:39.794Z,66.30
2018-11-04T14:15:08.799Z,66.40
2018-11-04T14:17:37.690Z,66.40
2018-11-04T14:20:09.546Z,66.50
2018-11-04T14:27:31.567Z,66.60
2018-11-04T14:30:00.478Z,66.70
2018-11-04T14:32:29.444Z,66.90
2018-11-04T14:34:58.351Z,67.10
2018-11-04T14:37:27.214Z,67.10
2018-11-04T14:39:56.091Z,67.30
2018-11-04T14:42:24.918Z,67.10
2018-11-04T14:44:53.734Z,67.30
2018-11-04T14:47:22.579Z,66.90
2018-11-04T14:49:51.805Z,67.40
2018-11-04T14:52:20.683Z,67.50
2018-11-04T14:54:49.499Z,68.00
2018-11-04T14:57:18.331Z,67.50
2018-11-04T14:59:47.206Z,67.50
2018-11-04T15:02:16.066Z,67.50
2018-11-04T15:04:44.901Z,67.50
2018-11-04T15:07:13.798Z,67.60
2018-11-04T15:09:42.626Z,67.70
2018-11-04T15:12:11.949Z,67.70
2018-11-04T15:14:40.767Z,67.60
2018-11-04T15:17:09.608Z,67.80
2018-11-04T15:19:38.558Z,67.80
2018-11-04T15:22:07.478Z,68.00
2018-11-04T15:24:36.352Z,68.10
2018-11-04T15:27:05.398Z,68.10
2018-11-04T15:29:34.932Z,68.10
2018-11-04T15:32:03.755Z,68.20
2018-11-04T15:34:33.242Z,68.30
2018-11-04T15:37:01.896Z,68.20
2018-11-04T15:39:37.558Z,68.30
2018-11-04T15:42:06.667Z,68.30
2018-11-04T15:44:35.602Z,68.30
2018-11-04T15:47:05.238Z,68.40
2018-11-04T15:49:34.106Z,68.40
2018-11-04T15:52:02.966Z,69.20
2018-11-04T15:54:32.175Z,68.60
2018-11-04T15:57:06.568Z,68.60
2018-11-04T15:59:35.411Z,68.60
2018-11-04T16:02:04.391Z,68.70
2018-11-04T16:04:44.542Z,68.70
2018-11-04T16:07:02.063Z,69.50
2018-11-04T16:09:30.924Z,68.80
2018-11-04T16:11:59.723Z,68.90
2018-11-04T16:14:29.810Z,69.00
2018-11-04T16:16:58.639Z,69.00
2018-11-04T16:19:27.549Z,69.00
2018-11-04T16:21:56.399Z,69.10
2018-11-04T16:24:25.340Z,69.10
2018-11-04T16:26:54.250Z,69.20
2018-11-04T16:29:23.129Z,69.10
2018-11-04T16:31:52.294Z,69.30
2018-11-04T16:34:21.068Z,69.40
2018-11-04T16:36:50.395Z,69.40
2018-11-04T16:39:19.208Z,69.50
2018-11-04T16:41:48.027Z,69.50
2018-11-04T16:44:17.179Z,69.50
2018-11-04T16:46:45.831Z,69.50
2018-11-04T16:49:14.808Z,69.60
2018-11-04T16:51:43.785Z,69.60
2018-11-04T16:54:12.703Z,69.60
2018-11-04T16:56:41.529Z,69.60
2018-11-04T16:59:10.716Z,69.60
2018-11-04T17:01:39.565Z,70.00
2018-11-04T17:04:08.480Z,69.60
2018-11-04T17:06:37.278Z,69.80
2018-11-04T17:09:08.632Z,69.80
2018-11-04T17:11:37.504Z,69.90
2018-11-04T17:14:06.342Z,69.90
2018-11-04T17:16:35.239Z,70.00
2018-11-04T17:19:04.099Z,70.00
2018-11-04T17:21:33.347Z,70.10
2018-11-04T17:24:02.195Z,70.10
2018-11-04T17:26:31.040Z,70.10
2018-11-04T17:28:59.929Z,70.20
2018-11-04T17:31:28.846Z,70.20
2018-11-04T17:33:58.078Z,70.30
2018-11-04T17:36:26.970Z,70.30
2018-11-04T17:38:55.884Z,70.30
2018-11-04T17:41:24.718Z,70.40
2018-11-04T17:43:53.900Z,70.40
2018-11-04T17:46:22.757Z,70.40
2018-11-04T17:48:51.664Z,70.50
2018-11-04T17:51:20.503Z,70.50
2018-11-04T17:53:49.313Z,70.60
2018-11-04T17:56:18.152Z,70.60
2018-11-04T17:58:46.979Z,70.60
2018-11-04T18:01:15.858Z,70.70
2018-11-04T18:03:44.647Z,70.80
2018-11-04T18:06:13.606Z,70.70
2018-11-04T18:08:42.472Z,71.00
2018-11-04T18:11:11.312Z,70.70
2018-11-04T18:13:40.155Z,70.90
2018-11-04T18:16:08.971Z,71.00
2018-11-04T18:18:37.794Z,70.90
2018-11-04T18:21:06.641Z,71.00
2018-11-04T18:23:35.475Z,71.10
2018-11-04T18:26:04.462Z,71.00
2018-11-04T18:29:07.704Z,70.50
2018-11-04T18:31:36.519Z,71.00
2018-11-04T18:34:05.970Z,71.00
2018-11-04T18:36:34.803Z,71.10
2018-11-04T18:39:03.861Z,71.10
2018-11-04T18:41:32.698Z,71.20
2018-11-04T18:44:01.660Z,71.10
2018-11-04T18:46:30.504Z,71.10
2018-11-04T18:48:59.350Z,71.10
2018-11-04T18:51:28.580Z,71.10
2018-11-04T18:53:57.423Z,71.10
2018-11-04T18:56:26.284Z,71.10
2018-11-04T18:58:55.447Z,71.10
2018-11-04T19:01:24.323Z,71.20
2018-11-04T19:03:53.180Z,71.20
2018-11-04T19:06:22.015Z,71.20
2018-11-04T19:08:50.815Z,71.10
2018-11-04T19:11:19.748Z,71.10
2018-11-04T19:13:48.755Z,71.00
2018-11-04T19:16:17.553Z,71.10
2018-11-04T19:18:46.431Z,71.00
2018-11-04T19:21:15.220Z,71.00
2018-11-04T19:23:44.069Z,71.00
2018-11-04T19:26:12.882Z,71.00
2018-11-04T19:28:41.742Z,71.00
2018-11-04T19:31:10.715Z,71.00
2018-11-04T19:33:39.503Z,71.00
2018-11-04T19:36:09.291Z,70.90
2018-11-04T19:38:38.175Z,70.80
2018-11-04T19:41:07.109Z,70.90
2018-11-04T19:43:35.935Z,70.80
2018-11-04T19:46:04.795Z,70.80
2018-11-04T19:48:33.711Z,70.90
2018-11-04T19:51:02.655Z,70.80
2018-11-04T19:53:31.395Z,70.80
2018-11-04T19:56:00.526Z,70.90
2018-11-04T19:58:29.721Z,70.90
2018-11-04T20:00:58.557Z,71.00
2018-11-04T20:03:27.415Z,71.00
2018-11-04T20:05:59.378Z,71.00
2018-11-04T20:08:28.207Z,71.10
2018-11-04T20:10:57.160Z,71.90
2018-11-04T20:13:31.317Z,71.20
2018-11-04T20:16:00.260Z,71.30
2018-11-04T20:18:34.327Z,71.40
2018-11-04T20:21:03.211Z,71.50
2018-11-04T20:23:32.037Z,71.50
2018-11-04T20:26:05.978Z,71.50
2018-11-04T20:28:34.820Z,71.60
2018-11-04T20:31:03.685Z,71.60
2018-11-04T20:33:33.652Z,71.70
2018-11-04T20:36:02.480Z,71.80
2018-11-04T20:38:37.076Z,71.80
2018-11-04T20:41:11.724Z,71.80
2018-11-04T20:43:40.555Z,71.80
2018-11-04T20:46:09.380Z,71.80
2018-11-04T20:48:44.104Z,71.90
2018-11-04T20:51:12.946Z,72.00
2018-11-04T20:53:41.814Z,72.00
2018-11-04T20:56:16.011Z,71.90
2018-11-04T20:58:44.976Z,71.90
2018-11-04T21:01:13.676Z,72.00
2018-11-04T21:03:42.687Z,71.90
2018-11-04T21:06:12.079Z,71.90
2018-11-04T21:08:40.950Z,71.90
2018-11-04T21:11:09.810Z,71.90
2018-11-04T21:13:45.126Z,71.80
2018-11-04T21:16:14.094Z,71.80
2018-11-04T21:18:42.775Z,71.70
2018-11-04T21:21:11.577Z,71.80
2018-11-04T21:23:40.424Z,71.80
2018-11-04T21:26:09.270Z,71.80
2018-11-04T21:28:38.380Z,71.80
2018-11-04T21:31:07.300Z,71.80
2018-11-04T21:33:36.136Z,71.80
2018-11-04T21:36:05.295Z,71.80
2018-11-04T21:38:34.595Z,71.90
2018-11-04T21:41:03.448Z,72.00
2018-11-04T21:43:32.566Z,71.90
2018-11-04T21:46:01.164Z,71.90
2018-11-04T21:48:29.990Z,71.90
2018-11-04T21:50:58.878Z,71.90
2018-11-04T21:53:27.833Z,71.90
2018-11-04T21:55:56.827Z,71.90
2018-11-04T21:58:25.607Z,71.90
2018-11-04T22:00:54.440Z,71.90
2018-11-04T22:03:23.461Z,72.00
2018-11-04T22:05:52.113Z,72.00
2018-11-04T22:08:20.936Z,72.10
2018-11-04T22:10:49.751Z,72.10
2018-11-04T22:13:18.608Z,72.20
2018-11-04T22:15:47.736Z,72.20
2018-11-04T22:18:16.568Z,72.20
2018-11-04T22:20:45.440Z,72.20
2018-11-04T22:23:14.260Z,72.30
2018-11-04T22:25:43.122Z,72.20
2018-11-04T22:28:11.939Z,72.30
2018-11-04T22:30:40.919Z,72.30
2018-11-04T22:33:09.783Z,72.30
2018-11-04T22:35:38.622Z,72.30
2018-11-04T22:38:08.107Z,72.30
2018-11-04T22:40:37.429Z,72.30
2018-11-04T22:43:06.247Z,72.30
2018-11-04T22:45:35.097Z,72.30
2018-11-04T22:48:03.928Z,72.30
2018-11-04T22:50:32.836Z,72.30
2018-11-04T22:53:01.676Z,72.30
2018-11-04T22:55:30.503Z,72.30
2018-11-04T22:58:06.573Z,72.30
2018-11-04T23:00:42.559Z,72.30
2018-11-04T23:03:11.867Z,72.30
2018-11-04T23:05:40.699Z,72.40
2018-11-04T23:08:10.047Z,72.40
2018-11-04T23:10:38.861Z,72.40
2018-11-04T23:13:07.680Z,72.50
2018-11-04T23:15:36.587Z,72.40
2018-11-04T23:18:05.805Z,72.40
2018-11-04T23:20:34.644Z,72.40
2018-11-04T23:23:03.468Z,72.40
2018-11-04T23:25:32.319Z,72.30
2018-11-04T23:28:01.147Z,72.30
2018-11-04T23:30:29.982Z,72.30
2018-11-04T23:32:58.802Z,72.30
2018-11-04T23:35:27.671Z,72.30
2018-11-04T23:37:56.500Z,72.30
2018-11-04T23:40:25.747Z,72.30
2018-11-04T23:42:54.959Z,72.30
2018-11-04T23:45:23.798Z,72.30
2018-11-04T23:47:52.647Z,72.30
2018-11-04T23:50:21.495Z,72.30
2018-11-04T23:52:50.323Z,72.30
2018-11-04T23:55:19.191Z,72.40
2018-11-04T23:57:48.010Z,72.40
